Time;durP1;ratioP1;P1;durP2;ratioP2;P2;SDS_P1;SDS_P2;PMS_P1;PMS_P2;Temp;Humidity;BMP_temperature;BMP_pressure;BME280_temperature;BME280_humidity;BME280_pressure;Samples;Min_cycle;Max_cycle;Signal;HPM_P1;HPM_P2
2022/05/07 00:02:00;;;;;;;38.15;29.02;;;;;;;11.26;100.00;102297.59;4853317;29;20177;-79
2022/05/07 00:04:29;;;;;;;37.97;28.77;;;;;;;11.25;100.00;102301.13;4864953;29;20063;-79
2022/05/07 00:06:59;;;;;;;39.22;28.63;;;;;;;11.26;100.00;102298.47;4864155;29;20383;-79
2022/05/07 00:09:28;;;;;;;42.78;30.40;;;;;;;11.27;100.00;102300.28;4868746;29;20052;-79
2022/05/07 00:11:56;;;;;;;43.03;30.80;;;;;;;11.27;100.00;102305.56;4836140;29;20574;-79
2022/05/07 00:14:26;;;;;;;42.28;31.15;;;;;;;11.29;100.00;102295.03;4872126;29;20095;-81
2022/05/07 00:19:41;;;;;;;41.40;31.42;;;;;;;11.36;100.00;102299.63;4849437;29;20048;-81
2022/05/07 00:22:10;;;;;;;41.55;31.65;;;;;;;11.39;100.00;102286.47;4842566;29;20493;-80
2022/05/07 00:24:38;;;;;;;42.97;31.05;;;;;;;11.42;100.00;102293.59;4844354;29;20042;-79
2022/05/07 00:27:07;;;;;;;48.80;33.42;;;;;;;11.46;100.00;102292.78;4837713;29;20368;-79
2022/05/07 00:29:35;;;;;;;39.17;31.17;;;;;;;11.47;100.00;102290.19;4866597;29;20140;-81
2022/05/07 00:32:04;;;;;;;47.65;35.22;;;;;;;11.50;100.00;102289.34;4833357;29;20411;-79
2022/05/07 00:34:33;;;;;;;43.50;32.25;;;;;;;11.50;100.00;102290.25;4866291;29;20059;-79
2022/05/07 00:37:02;;;;;;;43.72;32.90;;;;;;;11.51;100.00;102291.13;4838147;29;20060;-79
2022/05/07 00:39:30;;;;;;;43.30;33.95;;;;;;;11.52;100.00;102291.16;4835033;29;20399;-81
2022/05/07 00:42:03;;;;;;;44.85;33.13;;;;;;;11.54;100.00;102296.50;4840801;29;20076;-81
2022/05/07 00:44:33;;;;;;;42.90;31.90;;;;;;;11.54;100.00;102283.28;4820151;29;20056;-79
2022/05/07 00:47:14;;;;;;;39.53;32.35;;;;;;;11.54;100.00;102285.94;4865715;29;20029;-80
2022/05/07 00:49:45;;;;;;;43.33;32.67;;;;;;;11.55;100.00;102289.44;4853452;29;20049;-80
2022/05/07 00:52:14;;;;;;;;;;;;;;;11.55;100.00;102285.09;4853431;29;20064;-79
2022/05/07 00:54:44;;;;;;;49.85;36.40;;;;;;;11.54;100.00;102275.38;4847617;29;20131;-80
2022/05/07 00:57:15;;;;;;;48.10;35.42;;;;;;;11.53;100.00;102278.88;4853862;29;20536;-80
2022/05/07 00:59:45;;;;;;;50.25;35.53;;;;;;;11.50;100.00;102277.03;4830945;29;20253;-79
2022/05/07 01:02:13;;;;;;;44.35;34.28;;;;;;;11.47;100.00;102269.06;4835917;29;20060;-80
2022/05/07 01:04:42;;;;;;;51.05;35.03;;;;;;;11.46;100.00;102276.97;4853102;29;20049;-80
2022/05/07 01:07:12;;;;;;;48.73;34.33;;;;;;;11.43;100.00;102283.03;4847125;29;20049;-79
2022/05/07 01:09:41;;;;;;;53.50;35.85;;;;;;;11.40;100.00;102279.44;4845416;29;20694;-79
2022/05/07 01:12:10;;;;;;;56.03;37.70;;;;;;;11.39;100.00;102277.66;4853278;29;20060;-79
2022/05/07 01:14:39;;;;;;;56.50;37.50;;;;;;;11.36;100.00;102274.94;4803510;29;20392;-79
2022/05/07 01:17:08;;;;;;;52.88;37.70;;;;;;;11.35;100.00;102273.19;4855455;29;20044;-79
2022/05/07 01:19:42;;;;;;;55.40;37.35;;;;;;;11.31;100.00;102273.09;4851052;29;20052;-79
2022/05/07 01:22:12;;;;;;;48.63;37.33;;;;;;;11.30;100.00;102273.97;4832915;29;20049;-79
2022/05/07 01:24:40;;;;;;;50.90;39.00;;;;;;;11.28;100.00;102273.00;4830402;29;20046;-80
2022/05/07 01:27:09;;;;;;;57.05;38.22;;;;;;;11.27;100.00;102265.97;4820557;29;20049;-79
2022/05/07 01:29:38;;;;;;;53.33;37.95;;;;;;;11.27;100.00;102270.38;4832272;29;20065;-79
2022/05/07 01:32:07;;;;;;;52.22;36.25;;;;;;;11.26;100.00;102273.84;4871868;29;20049;-80
2022/05/07 01:34:36;;;;;;;62.85;42.40;;;;;;;11.26;100.00;102269.47;4862862;29;20041;-81
2022/05/07 01:37:04;;;;;;;58.50;39.67;;;;;;;11.25;100.00;102262.41;4862424;29;20056;-81
2022/05/07 01:39:36;;;;;;;58.75;41.80;;;;;;;11.26;100.00;102265.94;4849482;29;20052;-81
2022/05/07 01:42:05;;;;;;;55.92;38.30;;;;;;;11.25;100.00;102256.25;4855195;29;20049;-81
2022/05/07 01:44:36;;;;;;;57.47;38.78;;;;;;;11.24;100.00;102257.97;4835372;29;20045;-80
2022/05/07 01:49:51;;;;;;;55.65;39.85;;;;;;;11.24;100.00;102244.78;4852188;29;20347;-80
2022/05/07 01:52:20;;;;;;;51.78;37.83;;;;;;;11.22;100.00;102249.13;4857865;29;20056;-79
2022/05/07 01:54:48;;;;;;;56.45;39.63;;;;;;;11.22;100.00;102251.78;4840994;29;20531;-80
2022/05/07 01:57:17;;;;;;;55.70;39.40;;;;;;;11.21;100.00;102250.00;4856641;29;20064;-79
2022/05/07 01:59:45;;;;;;;56.28;38.53;;;;;;;11.22;100.00;102246.50;4832358;29;20660;-79
2022/05/07 02:02:16;;;;;;;50.75;37.33;;;;;;;11.23;100.00;102243.03;4872610;29;20045;-79
2022/05/07 02:04:46;;;;;;;57.42;39.03;;;;;;;11.24;100.00;102249.19;4859854;29;20056;-79
2022/05/07 02:07:18;;;;;;;61.65;41.42;;;;;;;11.24;100.00;102250.06;4871082;29;20044;-79
2022/05/07 02:09:47;;;;;;;55.78;41.25;;;;;;;11.24;100.00;102242.16;4847118;29;20057;-79
2022/05/07 02:12:15;;;;;;;61.40;39.88;;;;;;;11.26;100.00;102242.19;4865599;29;20041;-79
2022/05/07 02:14:46;;;;;;;56.30;37.97;;;;;;;11.26;100.00;102248.34;4837267;29;20041;-79
2022/05/07 02:17:18;;;;;;;56.92;39.53;;;;;;;11.26;100.00;102247.47;4835799;29;20041;-79
2022/05/07 02:19:46;;;;;;;63.28;41.97;;;;;;;11.25;100.00;102249.22;4843482;29;20064;-79
2022/05/07 02:22:15;;;;;;;68.95;45.88;;;;;;;11.24;100.00;102244.78;4840744;29;20049;-79
2022/05/07 02:24:43;;;;;;;61.92;41.70;;;;;;;11.24;100.00;102235.97;4843429;29;20268;-79
2022/05/07 02:27:20;;;;;;;64.95;43.13;;;;;;;11.24;100.00;102235.97;4849823;29;20057;-79
2022/05/07 02:29:48;;;;;;;65.55;43.28;;;;;;;11.24;100.00;102236.88;4836765;29;20048;-79
2022/05/07 02:32:18;;;;;;;57.88;39.47;;;;;;;11.25;100.00;102237.78;4823403;29;20057;-79
2022/05/07 02:34:47;;;;;;;58.33;41.67;;;;;;;11.25;100.00;102240.41;4864680;29;20065;-79
2022/05/07 02:37:24;;;;;;;63.00;42.22;;;;;;;11.25;100.00;102236.03;4857420;29;20048;-79
2022/05/07 02:39:55;;;;;;;60.38;40.95;;;;;;;11.27;100.00;102239.59;4851972;29;20068;-79
2022/05/07 02:42:33;;;;;;;59.53;40.60;;;;;;;11.26;100.00;102235.16;4856999;29;20387;-79
2022/05/07 02:45:10;;;;;;;60.88;43.65;;;;;;;11.28;100.00;102232.56;4832727;29;20048;-80
2022/05/07 02:47:43;;;;;;;63.00;43.42;;;;;;;11.29;100.00;102231.72;4838277;29;20041;-80
2022/05/07 02:50:13;;;;;;;65.28;43.97;;;;;;;11.30;100.00;102234.38;4866718;29;20045;-79
2022/05/07 02:52:42;;;;;;;63.90;41.95;;;;;;;11.32;100.00;102227.41;4848201;29;20050;-79
2022/05/07 02:55:11;;;;;;;57.83;40.05;;;;;;;11.33;100.00;102228.28;4850676;29;20045;-79
2022/05/07 02:57:42;;;;;;;63.00;42.90;;;;;;;11.36;100.00;102228.34;4847648;29;20037;-79
2022/05/07 03:00:11;;;;;;;62.75;44.13;;;;;;;11.38;100.00;102231.00;4843538;29;20041;-79
2022/05/07 03:02:40;;;;;;;65.55;45.67;;;;;;;11.39;100.00;102231.03;4854604;29;20045;-79
2022/05/07 03:05:09;;;;;;;59.25;41.85;;;;;;;11.42;100.00;102235.53;4821364;29;20057;-79
2022/05/07 03:07:38;;;;;;;66.53;44.90;;;;;;;11.42;100.00;102230.25;4834388;29;20041;-79
2022/05/07 03:10:13;;;;;;;60.10;43.88;;;;;;;11.44;100.00;102225.88;4852793;29;20044;-79
2022/05/07 03:12:42;;;;;;;61.00;43.13;;;;;;;11.45;100.00;102233.81;4861935;29;20045;-79
2022/05/07 03:15:10;;;;;;;61.20;42.78;;;;;;;11.47;100.00;102231.22;4868389;29;20052;-81
2022/05/07 03:17:39;;;;;;;60.25;42.85;;;;;;;11.47;100.00;102234.75;4839032;29;20049;-80
2022/05/07 03:20:11;;;;;;;59.55;41.63;;;;;;;11.49;100.00;102242.69;4823146;29;20041;-79
2022/05/07 03:22:42;;;;;;;61.75;40.75;;;;;;;11.50;100.00;102244.47;4819250;29;20545;-79
2022/05/07 03:25:11;;;;;;;60.60;42.60;;;;;;;11.50;100.00;102236.56;4865319;29;20045;-79
2022/05/07 03:27:39;;;;;;;59.25;40.03;;;;;;;11.50;100.00;102241.84;4852416;29;20045;-79
2022/05/07 03:30:13;;;;;;;58.25;41.10;;;;;;;11.49;100.00;102240.97;4847196;29;20033;-80
2022/05/07 03:32:56;;;;;;;54.13;39.60;;;;;;;11.48;100.00;102244.44;4857699;29;20052;-80
2022/05/07 03:35:26;;;;;;;60.63;38.95;;;;;;;11.50;100.00;102241.84;4832060;29;20056;-81
2022/05/07 03:37:54;;;;;;;52.97;39.08;;;;;;;11.49;100.00;102243.59;4841768;29;20205;-79
2022/05/07 03:40:23;;;;;;;54.38;40.30;;;;;;;11.51;100.00;102246.25;4857418;29;20037;-80
2022/05/07 03:42:51;;;;;;;60.00;40.67;;;;;;;11.52;100.00;102242.75;4849760;29;20153;-79
2022/05/07 03:45:20;;;;;;;62.33;42.13;;;;;;;11.54;100.00;102248.09;4836650;29;20052;-79
2022/05/07 03:47:48;;;;;;;61.38;42.70;;;;;;;11.54;100.00;102256.00;4854898;29;20530;-79
2022/05/07 03:50:17;;;;;;;57.05;42.08;;;;;;;11.55;100.00;102253.41;4857669;29;20368;-80
2022/05/07 03:55:32;;;;;;;62.90;42.35;;;;;;;11.55;100.00;102250.75;4856430;29;20045;-79
2022/05/07 03:58:02;;;;;;;60.92;41.63;;;;;;;11.55;100.00;102260.41;4839951;29;20503;-79
2022/05/07 04:00:35;;;;;;;54.22;38.55;;;;;;;11.56;100.00;102263.09;4849936;29;20431;-79
2022/05/07 04:03:10;;;;;;;59.08;41.47;;;;;;;11.58;100.00;102268.41;4828769;29;20064;-80
2022/05/07 04:05:49;;;;;;;59.45;39.72;;;;;;;11.59;100.00;102268.44;4837366;29;20084;-79
2022/05/07 04:08:21;;;;;;;59.80;38.63;;;;;;;11.61;100.00;102272.00;4873236;29;20037;-79
2022/05/07 04:10:50;;;;;;;59.90;39.55;;;;;;;11.62;100.00;102265.84;4865937;29;20259;-79
2022/05/07 04:13:23;;;;;;;56.60;39.53;;;;;;;11.64;100.00;102272.06;4836234;29;20053;-79
2022/05/07 04:16:03;;;;;;;59.20;40.40;;;;;;;11.64;100.00;102257.97;4856164;29;20417;-79
2022/05/07 04:18:35;;;;;;;57.85;41.05;;;;;;;11.63;100.00;102270.28;4839703;29;20056;-80
2022/05/07 04:21:09;;;;;;;60.80;41.85;;;;;;;11.62;100.00;102267.59;4823632;29;20503;-80
2022/05/07 04:23:37;;;;;;;63.88;44.00;;;;;;;11.62;100.00;102267.59;4837675;29;20061;-79
2022/05/07 04:26:06;;;;;;;64.72;43.30;;;;;;;11.60;100.00;102270.22;4840054;29;20049;-79
2022/05/07 04:28:40;;;;;;;61.60;42.20;;;;;;;11.62;100.00;102275.53;4848151;29;20049;-81
2022/05/07 04:31:16;;;;;;;62.80;44.15;;;;;;;11.60;100.00;102274.59;4871427;29;20063;-80
2022/05/07 04:33:51;;;;;;;64.03;42.13;;;;;;;11.60;100.00;102279.88;4851316;29;20495;-81
2022/05/07 04:36:19;;;;;;;63.60;44.45;;;;;;;11.61;100.00;102279.94;4858399;29;20404;-81
2022/05/07 04:38:48;;;;;;;70.35;44.72;;;;;;;11.63;100.00;102280.84;4837412;29;20045;-80
2022/05/07 04:41:24;;;;;;;62.35;43.28;;;;;;;11.65;100.00;102284.41;4838391;29;20399;-81
2022/05/07 04:43:57;;;;;;;64.90;44.40;;;;;;;11.67;100.00;102284.44;4859688;29;20179;-79
2022/05/07 04:46:26;;;;;;;64.90;41.90;;;;;;;11.68;100.00;102279.22;4838509;29;20053;-79
2022/05/07 04:49:09;;;;;;;62.17;42.70;;;;;;;11.71;100.00;102283.66;4858959;29;20056;-79
2022/05/07 04:51:39;;;;;;;63.10;42.45;;;;;;;11.74;100.00;102278.44;4838546;29;20041;-79
2022/05/07 04:54:20;;;;;;;63.03;44.60;;;;;;;11.77;100.00;102283.78;4872637;29;20376;-80
2022/05/07 04:56:52;;;;;;;61.92;45.08;;;;;;;11.79;100.00;102284.69;4839947;29;20256;-79
2022/05/07 04:59:26;;;;;;;67.18;45.03;;;;;;;11.81;100.00;102285.63;4838564;29;20064;-81
2022/05/07 05:02:06;;;;;;;62.35;43.75;;;;;;;11.83;100.00;102283.94;4837128;29;20404;-79
2022/05/07 05:04:36;;;;;;;62.72;44.67;;;;;;;11.86;100.00;102286.63;4839256;29;20135;-80
2022/05/07 05:07:12;;;;;;;68.10;45.67;;;;;;;11.88;100.00;102284.91;4856629;29;20056;-79
2022/05/07 05:09:44;;;;;;;61.70;43.53;;;;;;;11.89;100.00;102291.09;4835643;29;20048;-79
2022/05/07 05:12:22;;;;;;;60.28;42.90;;;;;;;11.92;100.00;102293.81;4865642;29;20052;-79
2022/05/07 05:15:03;;;;;;;64.22;44.67;;;;;;;11.94;100.00;102286.81;4837470;29;20053;-80
2022/05/07 05:17:47;;;;;;;69.15;45.40;;;;;;;11.97;100.00;102297.44;4866458;29;20048;-80
2022/05/07 05:20:18;;;;;;;64.93;45.45;;;;;;;12.00;100.00;102293.97;4842027;29;20057;-79
2022/05/07 05:22:58;;;;;;;68.68;44.97;;;;;;;12.03;100.00;102302.84;4836986;29;20498;-80
2022/05/07 05:25:36;;;;;;;67.43;43.42;;;;;;;12.07;100.00;102296.75;4869567;29;20430;-80
2022/05/07 05:28:06;;;;;;;62.07;44.83;;;;;;;12.13;100.00;102293.34;4856876;29;20518;-79
2022/05/07 05:30:34;;;;;;;60.30;43.67;;;;;;;12.17;100.00;102294.31;4852920;29;20048;-79
2022/05/07 05:33:08;;;;;;;66.72;45.63;;;;;;;12.22;100.00;102303.22;4864167;29;20045;-80
2022/05/07 05:35:38;;;;;;;64.68;44.33;;;;;;;12.24;100.00;102296.22;4847177;29;20049;-79
2022/05/07 05:38:07;;;;;;;70.78;45.47;;;;;;;12.26;100.00;102307.69;4838582;29;20057;-80
2022/05/07 05:40:36;;;;;;;60.53;44.13;;;;;;;12.27;100.00;102301.56;4816867;29;20510;-79
2022/05/07 05:43:05;;;;;;;65.38;45.05;;;;;;;12.30;100.00;102314.81;4865681;29;20073;-79
2022/05/07 05:45:35;;;;;;;63.20;46.10;;;;;;;12.31;100.00;102308.69;4849589;29;20049;-79
2022/05/07 05:48:04;;;;;;;76.57;46.75;;;;;;;12.34;100.00;102313.13;4861644;29;20059;-79
2022/05/07 05:50:38;;;;;;;67.53;45.58;;;;;;;12.37;100.00;102313.22;4849063;29;20041;-80
2022/05/07 05:53:07;;;;;;;61.22;41.53;;;;;;;12.40;100.00;102319.44;4843779;29;20048;-81
2022/05/07 05:55:36;;;;;;;58.55;39.95;;;;;;;12.43;100.00;102311.56;4841246;29;20040;-79
2022/05/07 05:58:05;;;;;;;62.13;40.30;;;;;;;12.47;100.00;102309.88;4869047;29;20056;-79
2022/05/07 06:00:36;;;;;;;65.25;46.83;;;;;;;12.51;100.00;102305.53;4855232;29;20033;-79
2022/05/07 06:03:05;;;;;;;60.63;41.25;;;;;;;12.55;100.00;102312.66;4850978;29;20430;-79
2022/05/07 06:05:34;;;;;;;65.47;45.42;;;;;;;12.60;100.00;102311.88;4840830;29;20049;-80
2022/05/07 06:08:03;;;;;;;64.25;42.40;;;;;;;12.64;100.00;102319.00;4860313;29;20056;-80
2022/05/07 06:10:36;;;;;;;62.38;42.25;;;;;;;12.70;100.00;102314.69;4829550;29;20048;-80
2022/05/07 06:13:10;;;;;;;56.33;41.58;;;;;;;12.75;100.00;102320.97;4829999;29;20063;-79
2022/05/07 06:15:51;;;;;;;58.85;41.35;;;;;;;12.81;100.00;102315.75;4893577;29;20350;-80
2022/05/07 06:18:22;;;;;;;56.33;39.67;;;;;;;12.86;100.00;102317.63;4865024;29;20048;-80
2022/05/07 06:20:57;;;;;;;59.28;42.28;;;;;;;12.92;100.00;102319.47;4826055;29;20042;-79
2022/05/07 06:23:30;;;;;;;58.03;40.92;;;;;;;12.97;100.00;102325.75;4845446;29;20037;-80
2022/05/07 06:28:46;;;;;;;57.42;39.22;;;;;;;13.06;100.00;102330.28;4820421;29;20033;-79
2022/05/07 06:31:17;;;;;;;56.97;40.65;;;;;;;13.08;100.00;102331.22;4864753;29;20048;-79
2022/05/07 06:33:47;;;;;;;55.13;40.08;;;;;;;13.12;100.00;102330.41;4838151;29;20290;-78
2022/05/07 06:36:15;;;;;;;56.20;37.88;;;;;;;13.17;100.00;102328.72;4859715;29;20044;-80
2022/05/07 06:38:44;;;;;;;51.72;36.13;;;;;;;13.20;100.00;102346.41;4856292;29;20271;-79
2022/05/07 06:41:14;;;;;;;56.25;38.50;;;;;;;13.25;100.00;102340.34;4859729;29;20045;-79
2022/05/07 06:43:52;;;;;;;54.00;37.45;;;;;;;13.33;100.00;102345.78;4837052;29;20057;-79
2022/05/07 06:46:34;;;;;;;49.70;37.33;;;;;;;13.41;100.00;102346.78;4851688;29;20380;-81
2022/05/07 06:49:09;;;;;;;54.08;37.83;;;;;;;13.48;100.00;102342.47;4844222;29;20420;-79
2022/05/07 06:51:52;;;;;;;46.97;34.88;;;;;;;13.56;100.00;102338.19;4836983;29;20053;-79
2022/05/07 06:54:21;;;;;;;47.30;35.75;;;;;;;13.65;100.00;102351.56;4868137;29;20057;-79
2022/05/07 06:56:50;;;;;;;46.65;33.38;;;;;;;13.77;100.00;102348.19;4843927;29;20359;-80
2022/05/07 06:59:21;;;;;;;43.75;30.98;;;;;;;13.94;100.00;102348.41;4839965;29;20044;-79
2022/05/07 07:01:50;;;;;;;41.95;32.00;;;;;;;14.13;100.00;102349.53;4850884;29;20038;-80
2022/05/07 07:04:19;;;;;;;40.97;29.15;;;;;;;14.26;100.00;102345.28;4842041;29;20058;-80
2022/05/07 07:06:49;;;;;;;51.58;29.15;;;;;;;14.31;100.00;102343.59;4868301;29;20068;-81
2022/05/07 07:09:18;;;;;;;39.38;29.38;;;;;;;14.37;100.00;102342.75;4854015;29;20053;-80
2022/05/07 07:11:47;;;;;;;141.20;36.80;;;;;;;14.43;100.00;102346.34;4871779;29;20053;-80
2022/05/07 07:14:15;;;;;;;81.55;33.72;;;;;;;14.52;100.00;102347.34;4842191;29;20061;-81
2022/05/07 07:16:44;;;;;;;48.50;28.38;;;;;;;14.62;100.00;102349.25;4866952;29;20049;-79
2022/05/07 07:19:16;;;;;;;40.53;29.67;;;;;;;14.77;100.00;102344.09;4860630;29;20056;-79
2022/05/07 07:21:45;;;;;;;35.75;27.52;;;;;;;14.89;100.00;102345.06;4844488;29;20064;-79
2022/05/07 07:24:14;;;;;;;36.53;27.73;;;;;;;14.96;100.00;102338.97;4894285;29;20048;-79
2022/05/07 07:26:42;;;;;;;39.60;28.33;;;;;;;15.00;100.00;102341.63;4841062;29;20053;-79
2022/05/07 07:29:11;;;;;;;34.63;28.55;;;;;;;15.04;100.00;102339.03;4841744;29;20056;-80
2022/05/07 07:31:40;;;;;;;37.47;28.42;;;;;;;15.04;100.00;102353.19;4858650;29;20072;-81
2022/05/07 07:34:09;;;;;;;38.83;27.85;;;;;;;14.99;100.00;102344.31;4857394;29;20053;-79
2022/05/07 07:36:37;;;;;;;40.55;28.67;;;;;;;14.96;100.00;102342.50;4854285;29;20403;-80
2022/05/07 07:39:07;;;;;;;36.03;27.90;;;;;;;14.97;100.00;102344.28;4846457;29;20041;-79
2022/05/07 07:41:36;;;;;;;37.42;29.02;;;;;;;15.01;100.00;102347.88;4853412;29;20049;-79
2022/05/07 07:44:05;;;;;;;38.92;30.17;;;;;;;15.07;100.00;102349.69;4838882;29;20052;-80
2022/05/07 07:49:21;;;;;;;43.47;30.20;;;;;;;15.19;100.00;102353.31;4846735;29;20127;-79
2022/05/07 07:51:50;;;;;;;40.33;28.80;;;;;;;15.20;100.00;102354.22;4846464;29;20031;-80
2022/05/07 07:54:18;;;;;;;37.97;28.17;;;;;;;15.23;100.00;102363.97;4868487;29;20064;-80
2022/05/07 07:56:47;;;;;;;41.10;28.70;;;;;;;15.19;100.00;102355.06;4865877;29;20037;-79
2022/05/07 07:59:18;;;;;;;40.30;30.45;;;;;;;15.20;100.00;102364.84;4841656;29;20514;-80
2022/05/07 08:01:48;;;;;;;46.10;32.97;;;;;;;15.21;100.00;102374.56;4841441;29;20057;-80
2022/05/07 08:04:17;;;;;;;43.95;29.20;;;;;;;15.19;100.00;102366.56;4846173;29;20154;-79
2022/05/07 08:11:39;;;;;;;39.33;29.75;;;;;;;15.19;100.00;102379.84;4829327;29;20245;-79
2022/05/07 08:12:22;;;;;;;44.00;30.02;;;;;;;15.16;100.00;102370.97;4842510;29;20315;-80
2022/05/07 08:14:50;;;;;;;43.25;27.48;;;;;;;15.11;100.00;102381.56;4870759;29;20052;-80
2022/05/07 08:17:19;;;;;;;41.60;27.20;;;;;;;15.08;100.00;102383.28;4839517;29;20064;-80
2022/05/07 08:19:48;;;;;;;42.95;29.38;;;;;;;15.06;100.00;102383.28;4856490;29;20053;-80
2022/05/07 08:22:17;;;;;;;44.42;28.88;;;;;;;15.03;100.00;102375.31;4874713;29;20058;-79
2022/05/07 08:24:46;;;;;;;39.42;28.25;;;;;;;14.95;100.00;102382.28;4855223;29;20606;-79
2022/05/07 08:27:15;;;;;;;45.70;29.73;;;;;;;14.88;100.00;102380.47;4847532;29;20045;-79
2022/05/07 08:29:43;;;;;;;53.33;31.63;;;;;;;14.82;100.00;102390.16;4844608;29;20045;-79
2022/05/07 08:32:12;;;;;;;50.17;32.95;;;;;;;14.75;100.00;102398.91;4831822;29;20622;-80
2022/05/07 08:34:41;;;;;;;53.17;35.88;;;;;;;14.67;100.00;102389.06;4834272;29;20058;-79
2022/05/07 08:37:10;;;;;;;46.78;33.55;;;;;;;14.57;100.00;102393.41;4883363;29;20060;-81
2022/05/07 08:39:38;;;;;;;51.65;34.88;;;;;;;14.50;100.00;102391.50;4856094;29;20057;-80
2022/05/07 08:42:07;;;;;;;57.92;37.65;;;;;;;14.44;100.00;102397.63;4829799;29;20333;-80
2022/05/07 08:44:37;;;;;;;59.92;36.88;;;;;;;14.38;100.00;102398.44;4854323;29;20055;-80
2022/05/07 08:47:05;;;;;;;59.13;37.95;;;;;;;14.32;100.00;102405.44;4835002;29;20180;-80
2022/05/07 08:49:36;;;;;;;68.57;39.15;;;;;;;14.28;100.00;102393.03;4823479;29;20045;-80
2022/05/07 08:52:05;;;;;;;59.47;37.35;;;;;;;14.22;100.00;102389.41;4817638;29;20041;-80
2022/05/07 08:54:34;;;;;;;60.95;37.35;;;;;;;14.21;100.00;102386.75;4841654;29;20040;-79
2022/05/07 08:57:05;;;;;;;52.75;33.10;;;;;;;14.20;100.00;102393.81;4825179;29;20072;-79
2022/05/07 08:59:33;;;;;;;;;;;;;;;14.20;100.00;102393.81;4858443;29;20378;-81
2022/05/07 09:02:03;;;;;;;61.42;37.47;;;;;;;14.20;100.00;102387.63;4823390;29;19924;-80
2022/05/07 09:04:38;;;;;;;63.20;36.38;;;;;;;14.23;100.00;102393.88;4848907;29;20053;-80
2022/05/07 09:07:15;;;;;;;56.30;36.67;;;;;;;14.32;100.00;102402.81;4852782;29;20041;-80
2022/05/07 09:09:48;;;;;;;66.22;41.85;;;;;;;14.37;100.00;102404.63;4854325;29;20053;-79
2022/05/07 09:12:28;;;;;;;59.75;38.88;;;;;;;14.45;100.00;102396.78;4854105;29;20518;-79
2022/05/07 09:15:01;;;;;;;63.05;39.78;;;;;;;14.51;100.00;102398.59;4863975;29;20045;-79
2022/05/07 09:17:30;;;;;;;68.63;41.85;;;;;;;14.60;100.00;102402.28;4835506;29;20038;-80
2022/05/07 09:20:19;;;;;;;69.00;44.28;;;;;;;14.71;100.00;102404.19;4841587;29;20514;-80
2022/05/07 09:22:57;;;;;;;58.28;38.80;;;;;;;14.79;100.00;102399.84;4856275;29;20041;-80
2022/05/07 09:25:27;;;;;;;114.35;43.28;;;;;;;14.87;100.00;102405.22;4853082;29;20398;-80
2022/05/07 09:27:57;;;;;;;61.67;38.13;;;;;;;14.96;100.00;102406.19;4856389;29;20037;-79
2022/05/07 09:30:30;;;;;;;52.75;37.40;;;;;;;15.08;100.00;102402.75;4845772;29;20049;-80
2022/05/07 09:32:59;;;;;;;48.85;34.75;;;;;;;15.15;100.00;102417.88;4828743;29;20052;-80
2022/05/07 09:38:24;;;;;;;59.20;39.00;;;;;;;15.40;100.00;102404.81;4874848;29;20064;-79
2022/05/07 09:40:53;;;;;;;67.63;40.35;;;;;;;15.56;100.00;102412.03;4827823;29;20057;-81
2022/05/07 09:43:22;;;;;;;72.22;41.20;;;;;;;15.73;100.00;102408.63;4851544;29;20052;-80
2022/05/07 09:45:51;;;;;;;50.40;30.92;;;;;;;15.85;100.00;102403.41;4853106;29;20057;-81
2022/05/07 09:48:21;;;;;;;64.30;30.92;;;;;;;15.88;100.00;102403.44;4840931;29;20044;-81
2022/05/07 09:50:58;;;;;;;47.28;33.83;;;;;;;16.02;100.00;102402.63;4870999;29;20049;-81
2022/05/07 09:59:02;;;;;;;47.25;36.83;;;;;;;16.33;100.00;102414.28;4873464;29;20276;-79
2022/05/07 10:02:06;;;;;;;50.88;35.40;;;;;;;16.56;100.00;102417.03;4833552;29;20075;-80
2022/05/07 10:04:53;;;;;;;43.75;32.38;;;;;;;16.77;100.00;102409.09;4843532;29;20372;-80
2022/05/07 10:07:35;;;;;;;35.95;26.70;;;;;;;16.86;100.00;102418.94;4845503;29;20072;-80
2022/05/07 10:10:24;;;;;;;69.53;29.27;;;;;;;16.86;100.00;102420.69;4841279;29;20045;-80
2022/05/07 10:12:55;;;;;;;60.00;28.02;;;;;;;16.90;100.00;102419.78;4862233;29;20053;-81
2022/05/07 10:15:25;;;;;;;39.50;26.77;;;;;;;16.98;100.00;102423.38;4848795;29;20053;-81
2022/05/07 10:18:01;;;;;;;;;;;;;;;17.12;100.00;102412.72;4846663;29;20071;-79
2022/05/07 10:20:40;;;;;;;33.88;25.25;;;;;;;17.24;100.00;102409.19;4848483;29;19947;-79
2022/05/07 10:23:12;;;;;;;34.13;25.35;;;;;;;17.29;100.00;102418.97;4860568;29;20045;-81
2022/05/07 10:25:43;;;;;;;88.50;30.67;;;;;;;17.32;100.00;102418.97;4850463;29;20049;-81
2022/05/07 10:28:15;;;;;;;34.22;23.23;;;;;;;17.38;100.00;102423.41;4862120;29;20040;-79
2022/05/07 10:30:56;;;;;;;135.45;32.17;;;;;;;17.40;100.00;102415.41;4830959;29;20033;-79
2022/05/07 10:33:25;;;;;;;34.42;25.55;;;;;;;17.46;100.00;102421.63;4867466;29;20150;-79
2022/05/07 10:35:57;;;;;;;26.33;17.92;;;;;;;17.48;100.00;102425.16;4839395;29;20037;-79
2022/05/07 10:38:35;;;;;;;27.42;21.15;;;;;;;17.48;100.00;102425.16;4852990;29;20359;-80
2022/05/07 10:41:04;;;;;;;25.52;18.33;;;;;;;17.45;100.00;102424.31;4839252;29;20041;-79
2022/05/07 10:43:38;;;;;;;16.27;12.47;;;;;;;17.50;100.00;102420.75;4862054;29;20052;-78
2022/05/07 10:46:38;;;;;;;13.65;11.70;;;;;;;17.65;100.00;102427.81;4833121;29;20061;-78
2022/05/07 10:49:07;;;;;;;18.13;13.02;;;;;;;17.74;100.00;102419.81;4843392;29;20064;-78
2022/05/07 10:51:53;;;;;;;21.48;14.55;;;;;;;17.64;100.00;102417.19;4855703;29;20045;-78
2022/05/07 10:54:24;;;;;;;19.35;14.45;;;;;;;17.53;100.00;102422.53;4854496;29;20383;-79
2022/05/07 10:56:59;;;;;;;17.73;13.50;;;;;;;17.50;100.00;102425.19;4886805;29;20041;-86
2022/05/07 10:59:29;;;;;;;16.15;12.23;;;;;;;17.51;100.00;102430.50;4848200;29;20075;-82
2022/05/07 11:02:06;;;;;;;19.23;12.68;;;;;;;17.45;100.00;102434.97;4812650;29;20056;-82
2022/05/07 11:04:43;;;;;;;19.35;12.82;;;;;;;17.42;100.00;102430.50;4832875;29;20391;-79
2022/05/07 11:07:19;;;;;;;19.02;13.00;;;;;;;17.35;100.00;102434.06;4860910;29;20063;-79
2022/05/07 11:09:50;;;;;;;13.60;11.00;;;;;;;17.28;100.00;102442.97;4846101;29;20387;-80
2022/05/07 11:12:22;;;;;;;18.13;11.75;;;;;;;17.32;100.00;102434.06;4853718;29;20395;-81
2022/05/07 11:14:51;;;;;;;13.98;9.13;;;;;;;17.27;100.00;102441.16;4849833;29;20057;-80
2022/05/07 11:17:31;;;;;;;12.30;8.32;;;;;;;17.19;100.00;102454.47;4836949;29;20056;-80
2022/05/07 11:20:00;;;;;;;13.57;10.45;;;;;;;17.28;100.00;102440.28;4836461;29;20284;-80
2022/05/07 11:22:30;;;;;;;12.27;9.85;;;;;;;17.25;100.00;102450.94;4867252;29;20052;-80
2022/05/07 11:25:03;;;;;;;13.15;10.45;;;;;;;17.16;100.00;102446.47;4854957;29;20431;-80
2022/05/07 11:27:34;;;;;;;15.90;11.27;;;;;;;16.96;100.00;102454.44;4862044;29;20246;-80
2022/05/07 11:30:04;;;;;;;11.85;9.05;;;;;;;16.85;100.00;102453.53;4847072;29;20044;-81
2022/05/07 11:32:41;;;;;;;11.50;8.98;;;;;;;16.81;100.00;102451.72;4861725;29;20056;-81
2022/05/07 11:35:10;;;;;;;11.90;8.30;;;;;;;16.74;100.00;102451.69;4840408;29;20685;-80
2022/05/07 11:37:41;;;;;;;15.38;11.95;;;;;;;16.69;100.00;102455.22;4864584;29;20063;-80
2022/05/07 11:40:11;;;;;;;15.20;12.27;;;;;;;16.48;100.00;102461.34;4854307;29;20068;-80
2022/05/07 11:42:46;;;;;;;15.60;11.98;;;;;;;16.34;100.00;102461.28;4844901;29;20041;-80
2022/05/07 11:45:26;;;;;;;14.52;11.27;;;;;;;16.24;100.00;102460.34;4863567;29;20049;-80
2022/05/07 11:48:02;;;;;;;95.90;21.92;;;;;;;16.16;100.00;102462.06;4845322;29;20045;-80